Time;durP1;ratioP1;P1;durP2;ratioP2;P2;SDS_P1;SDS_P2;PMS_P1;PMS_P2;Temp;Humidity;BMP_temperature;BMP_pressure;BME280_temperature;BME280_humidity;BME280_pressure;Samples;Min_cycle;Max_cycle;Signal;HPM_P1;HPM_P2
2022/08/11 00:02:39;;;;;;;5.22;2.92;;;21.30;99.90;;;;;;5012902;28;20054;-75
2022/08/11 00:05:12;;;;;;;4.73;1.70;;;21.30;99.90;;;;;;5014612;28;20129;-76
2022/08/11 00:07:53;;;;;;;2.92;1.50;;;21.30;99.90;;;;;;5015180;28;20647;-76
2022/08/11 00:10:26;;;;;;;5.85;1.02;;;21.20;99.90;;;;;;5013550;28;20136;-76
2022/08/11 00:13:02;;;;;;;2.45;1.15;;;21.10;99.90;;;;;;5014292;28;20081;-76
2022/08/11 00:15:41;;;;;;;1.67;1.05;;;21.10;99.90;;;;;;5015135;28;20488;-76
2022/08/11 00:18:09;;;;;;;3.15;0.93;;;21.10;99.90;;;;;;5014021;28;20052;-76
2022/08/11 00:20:38;;;;;;;2.22;1.00;;;21.10;99.90;;;;;;5013517;28;20054;-76
2022/08/11 00:23:10;;;;;;;3.67;1.30;;;21.00;99.90;;;;;;5013363;28;20081;-76
2022/08/11 00:25:41;;;;;;;1.70;0.85;;;21.00;99.90;;;;;;5013479;28;20050;-76
2022/08/11 00:28:40;;;;;;;4.07;1.30;;;21.00;99.90;;;;;;5013223;28;20071;-76
2022/08/11 00:31:19;;;;;;;2.08;1.08;;;20.90;99.90;;;;;;4984958;28;20128;-76
2022/08/11 00:33:47;;;;;;;3.55;0.98;;;20.90;99.90;;;;;;5014177;28;20136;-76
2022/08/11 00:36:16;;;;;;;1.60;1.00;;;20.90;99.90;;;;;;5014625;28;20133;-76
2022/08/11 00:38:52;;;;;;;1.98;1.05;;;20.90;99.90;;;;;;5014457;28;20103;-76
2022/08/11 00:41:52;;;;;;;3.65;0.90;;;20.80;99.90;;;;;;5014352;28;20046;-76
2022/08/11 00:44:27;;;;;;;1.30;0.90;;;20.80;99.90;;;;;;5012999;28;20079;-76
2022/08/11 00:47:20;;;;;;;1.70;1.10;;;20.60;99.90;;;;;;5012920;28;20500;-76
2022/08/11 00:50:01;;;;;;;1.92;0.90;;;20.60;99.90;;;;;;5014370;28;20454;-77
2022/08/11 00:52:43;;;;;;;3.13;0.90;;;20.60;99.90;;;;;;5013163;28;20137;-76
2022/08/11 00:55:25;;;;;;;2.53;0.98;;;20.60;99.90;;;;;;5013104;28;20129;-76
2022/08/11 00:58:19;;;;;;;2.70;1.00;;;20.50;99.90;;;;;;5012891;28;20129;-76
2022/08/11 01:01:00;;;;;;;3.97;0.80;;;20.60;99.90;;;;;;5012042;28;20046;-76
2022/08/11 01:04:04;;;;;;;1.35;0.90;;;20.40;99.90;;;;;;5013430;28;20073;-76
2022/08/11 01:06:48;;;;;;;2.60;1.13;;;20.40;99.90;;;;;;5012900;28;20057;-76
2022/08/11 01:09:18;;;;;;;2.78;0.90;;;20.30;99.90;;;;;;5013215;28;20142;-76
2022/08/11 01:12:00;;;;;;;4.40;1.00;;;20.40;99.90;;;;;;5011711;28;20053;-76
2022/08/11 01:14:54;;;;;;;2.85;0.90;;;20.40;99.90;;;;;;5013137;28;20085;-76
2022/08/11 01:17:58;;;;;;;3.10;1.08;;;20.40;99.90;;;;;;5012240;28;20133;-76
2022/08/11 01:21:03;;;;;;;5.45;1.10;;;20.30;99.90;;;;;;5013534;28;20104;-75
2022/08/11 01:24:09;;;;;;;3.05;0.82;;;20.30;99.90;;;;;;5013438;28;20141;-77
2022/08/11 01:26:42;;;;;;;0.93;0.90;;;20.30;99.90;;;;;;5012968;28;20072;-76
2022/08/11 01:29:30;;;;;;;3.88;1.30;;;20.20;99.90;;;;;;5013741;28;20587;-76
2022/08/11 01:32:21;;;;;;;2.35;1.17;;;20.30;99.90;;;;;;5010231;28;20527;-76
2022/08/11 01:34:54;;;;;;;4.18;1.42;;;20.30;99.90;;;;;;5013780;28;20092;-76
2022/08/11 01:37:52;;;;;;;3.15;1.02;;;20.30;99.90;;;;;;5013642;28;20081;-76
2022/08/11 01:40:46;;;;;;;2.17;1.00;;;20.20;99.90;;;;;;5012479;28;20474;-76
2022/08/11 01:46:49;;;;;;;3.17;1.10;;;20.10;99.90;;;;;;5013234;28;20144;-76
2022/08/11 01:49:26;;;;;;;2.35;1.35;;;20.10;99.90;;;;;;5012880;28;20096;-76
2022/08/11 01:52:33;;;;;;;3.45;1.10;;;20.10;99.90;;;;;;5012943;28;20098;-76
2022/08/11 01:55:22;;;;;;;1.88;1.10;;;20.10;99.90;;;;;;5013253;28;20053;-76
2022/08/11 01:58:06;;;;;;;1.10;1.00;;;20.00;99.90;;;;;;5012582;28;20085;-76
2022/08/11 02:00:47;;;;;;;3.38;1.05;;;20.00;99.90;;;;;;5013102;28;20057;-76
2022/08/11 02:03:53;;;;;;;2.35;1.17;;;20.00;99.90;;;;;;5012002;28;20108;-76
2022/08/11 02:06:56;;;;;;;1.90;1.00;;;19.90;99.90;;;;;;5011288;28;20502;-76
2022/08/11 02:09:28;;;;;;;2.78;1.10;;;19.90;99.90;;;;;;5012587;28;20112;-76
2022/08/11 02:12:15;;;;;;;1.35;0.93;;;19.90;99.90;;;;;;5012569;28;20050;-76
2022/08/11 02:15:07;;;;;;;4.95;1.25;;;19.70;99.90;;;;;;5011266;28;20495;-76
2022/08/11 02:17:49;;;;;;;5.05;1.10;;;19.70;99.90;;;;;;5012308;28;20100;-76
2022/08/11 02:26:34;;;;;;;1.75;0.88;;;19.50;99.90;;;;;;5009701;28;20060;-76
2022/08/11 02:29:20;;;;;;;2.20;1.08;;;19.50;99.90;;;;;;5012254;28;20050;-76
2022/08/11 02:35:11;;;;;;;1.63;1.40;;;19.40;99.90;;;;;;5012580;28;20046;-76
2022/08/11 02:38:11;;;;;;;1.98;1.02;;;19.40;99.90;;;;;;5012481;28;20081;-76
2022/08/11 02:40:57;;;;;;;;;;;19.30;99.90;;;;;;5012600;28;20120;-76
2022/08/11 02:43:40;;;;;;;3.60;0.93;;;19.30;99.90;;;;;;5012476;28;19964;-76
2022/08/11 02:46:27;;;;;;;1.77;0.93;;;19.30;99.90;;;;;;5012388;28;20057;-76
2022/08/11 02:52:07;;;;;;;2.53;1.02;;;19.30;99.90;;;;;;5012103;28;20141;-76
2022/08/11 02:54:42;;;;;;;1.80;1.10;;;19.30;99.90;;;;;;5012049;28;20042;-76
2022/08/11 02:57:17;;;;;;;2.15;1.30;;;19.20;99.90;;;;;;5012121;28;20105;-76
2022/08/11 02:59:58;;;;;;;2.53;0.90;;;19.10;99.90;;;;;;5011633;28;20050;-76
2022/08/11 03:02:44;;;;;;;1.52;1.02;;;19.20;99.90;;;;;;5012020;28;20149;-76
2022/08/11 03:05:16;;;;;;;2.22;1.20;;;19.20;99.90;;;;;;5011694;28;20088;-75
2022/08/11 03:08:01;;;;;;;2.22;1.10;;;19.20;99.90;;;;;;5012025;28;20089;-76
2022/08/11 03:10:41;;;;;;;2.65;1.38;;;19.10;99.90;;;;;;5011805;28;20049;-76
2022/08/11 03:19:17;;;;;;;3.42;1.25;;;18.90;99.90;;;;;;5009854;28;20092;-76
2022/08/11 03:21:57;;;;;;;6.78;1.15;;;18.90;99.90;;;;;;5011562;28;20057;-76
2022/08/11 03:24:54;;;;;;;1.20;1.10;;;18.90;99.90;;;;;;5009245;28;20133;-76
2022/08/11 03:27:47;;;;;;;3.60;1.00;;;18.80;99.90;;;;;;5011906;28;20089;-76
2022/08/11 03:30:33;;;;;;;3.15;1.48;;;18.90;99.90;;;;;;5010224;28;20054;-75
2022/08/11 03:36:18;;;;;;;2.13;1.20;;;18.80;99.90;;;;;;5010347;28;20679;-76
2022/08/11 03:39:01;;;;;;;1.23;0.98;;;18.70;99.90;;;;;;5011334;28;20089;-76
2022/08/11 03:41:43;;;;;;;2.47;1.30;;;18.70;99.90;;;;;;5009092;28;20129;-76
2022/08/11 03:45:04;;;;;;;5.00;1.58;;;18.80;99.90;;;;;;5011608;28;20090;-76
2022/08/11 03:47:36;;;;;;;4.05;1.40;;;18.70;99.90;;;;;;5010208;28;20054;-76
2022/08/11 03:50:15;;;;;;;6.18;1.30;;;18.60;99.90;;;;;;5010841;28;20471;-76
2022/08/11 03:52:56;;;;;;;2.63;1.30;;;18.60;99.90;;;;;;5011171;28;20057;-76
2022/08/11 03:56:01;;;;;;;2.55;1.13;;;18.50;99.90;;;;;;5010626;28;20049;-76
2022/08/11 03:58:40;;;;;;;2.33;1.20;;;18.40;99.90;;;;;;5009716;28;20510;-76
2022/08/11 04:01:31;;;;;;;5.72;1.42;;;18.50;99.90;;;;;;5009789;28;20058;-76
2022/08/11 04:04:25;;;;;;;2.45;1.38;;;18.50;99.90;;;;;;5010060;28;20100;-76
2022/08/11 04:07:17;;;;;;;7.32;1.45;;;18.40;99.90;;;;;;5011096;28;20108;-76
2022/08/11 04:10:11;;;;;;;3.20;1.40;;;18.40;99.90;;;;;;5011030;28;20085;-76
2022/08/11 04:12:49;;;;;;;2.13;1.30;;;18.40;99.90;;;;;;5009330;28;20088;-76
2022/08/11 04:16:01;;;;;;;7.82;1.40;;;18.40;99.90;;;;;;5010451;28;20050;-76
2022/08/11 04:19:15;;;;;;;4.47;1.10;;;18.30;99.90;;;;;;5009966;28;20078;-76
2022/08/11 04:22:06;;;;;;;5.82;1.70;;;18.40;99.90;;;;;;5010752;28;20050;-76
2022/08/11 04:25:17;;;;;;;4.30;1.48;;;18.40;99.90;;;;;;5009869;28;20081;-76
2022/08/11 04:28:36;;;;;;;1.65;1.20;;;18.40;99.90;;;;;;4950331;29;20172;-76
2022/08/11 04:31:19;;;;;;;3.42;1.70;;;18.30;99.90;;;;;;4926566;29;20162;-75
2022/08/11 04:34:24;;;;;;;2.58;1.50;;;18.40;99.90;;;;;;5013507;28;20125;-75
2022/08/11 04:40:16;;;;;;;3.85;1.95;;;18.20;99.90;;;;;;5009957;28;20050;-76
2022/08/11 04:43:21;;;;;;;4.38;1.48;;;19.00;99.90;;;;;;5012184;28;20121;-76
2022/08/11 04:46:00;;;;;;;3.85;1.25;;;18.20;99.90;;;;;;4934651;29;20486;-76
2022/08/11 05:02:54;;;;;;;1.55;1.30;;;18.30;99.90;;;;;;5013041;28;20054;-76
2022/08/11 05:05:33;;;;;;;4.85;1.50;;;18.40;99.90;;;;;;5013431;28;20112;-76
2022/08/11 05:08:25;;;;;;;5.18;1.35;;;18.40;99.90;;;;;;5013191;28;20104;-76
2022/08/11 05:11:11;;;;;;;9.70;1.70;;;18.40;99.90;;;;;;5013915;28;20491;-76
2022/08/11 05:37:08;;;;;;;4.10;1.02;;;18.70;99.90;;;;;;5013634;28;20046;-76
2022/08/11 05:57:08;;;;;;;2.78;1.70;;;19.10;99.90;;;;;;5013132;28;20050;-76
2022/08/11 05:59:35;;;;;;;8.23;2.00;;;19.10;99.90;;;;;;5012713;28;20577;-76
2022/08/11 06:02:04;;;;;;;4.75;1.90;;;19.20;99.90;;;;;;5012863;28;20141;-76
2022/08/11 06:04:32;;;;;;;4.68;1.83;;;19.20;99.90;;;;;;5013194;28;20050;-76
2022/08/11 06:07:08;;;;;;;3.70;1.70;;;19.10;99.90;;;;;;5012895;28;20054;-76
2022/08/11 06:09:36;;;;;;;3.95;1.73;;;19.20;99.90;;;;;;5010823;28;20057;-76
2022/08/11 06:12:15;;;;;;;3.20;1.60;;;19.20;99.90;;;;;;5012978;28;20046;-76
2022/08/11 06:14:44;;;;;;;2.00;1.73;;;19.20;99.90;;;;;;5012444;28;20551;-76
2022/08/11 06:17:12;;;;;;;2.75;1.58;;;19.20;99.90;;;;;;5012692;28;20489;-76
2022/08/11 06:19:41;;;;;;;4.43;1.73;;;19.20;99.90;;;;;;5012309;28;20088;-76
2022/08/11 06:22:10;;;;;;;4.05;2.00;;;19.10;99.90;;;;;;5012283;28;20081;-76
2022/08/11 06:24:49;;;;;;;5.07;2.77;;;19.20;99.90;;;;;;5013036;28;20104;-76
2022/08/11 06:27:20;;;;;;;4.43;1.60;;;19.20;99.90;;;;;;5009253;28;20084;-76
2022/08/11 06:29:52;;;;;;;6.47;1.42;;;19.20;99.90;;;;;;5012200;28;20137;-76
2022/08/11 06:32:44;;;;;;;4.75;1.65;;;19.30;99.90;;;;;;5012214;28;20104;-76
2022/08/11 06:35:20;;;;;;;;;;;19.30;99.90;;;;;;5013178;28;20138;-76
2022/08/11 06:38:09;;;;;;;4.93;1.88;;;19.40;99.90;;;;;;5008736;28;20020;-76
2022/08/11 06:40:41;;;;;;;6.20;2.05;;;19.40;99.90;;;;;;5012254;28;20092;-76
2022/08/11 06:43:20;;;;;;;5.53;1.70;;;19.40;99.90;;;;;;5012235;28;20522;-76
2022/08/11 06:46:01;;;;;;;6.93;2.50;;;19.40;99.90;;;;;;5012244;28;20103;-76
2022/08/11 06:48:32;;;;;;;8.82;1.98;;;19.40;99.90;;;;;;5009657;28;20096;-76
2022/08/11 06:51:12;;;;;;;2.88;1.98;;;19.40;99.90;;;;;;5011818;28;20137;-76
2022/08/11 06:53:55;;;;;;;6.57;1.95;;;19.40;99.90;;;;;;5012020;28;20050;-76
2022/08/11 07:02:47;;;;;;;5.35;1.95;;;19.50;99.90;;;;;;5012135;28;20486;-76
2022/08/11 07:05:27;;;;;;;4.75;1.70;;;19.60;99.90;;;;;;5011002;28;20503;-76
2022/08/11 07:17:29;;;;;;;3.65;1.70;;;19.60;99.90;;;;;;5011893;28;20080;-76
2022/08/11 07:31:40;;;;;;;6.75;2.58;;;19.90;99.90;;;;;;5011334;28;20140;-76
2022/08/11 07:34:30;;;;;;;6.55;1.77;;;19.90;99.90;;;;;;5008870;28;20108;-76
2022/08/11 07:37:07;;;;;;;3.20;1.33;;;20.00;99.90;;;;;;5011632;28;20146;-76
2022/08/11 07:39:36;;;;;;;5.00;1.33;;;20.10;99.90;;;;;;5010750;28;20077;-76
2022/08/11 07:42:08;;;;;;;4.78;1.55;;;20.10;99.90;;;;;;5011591;28;20046;-76
2022/08/11 07:48:10;;;;;;;4.70;1.65;;;20.20;99.90;;;;;;5011376;28;20130;-76
2022/08/11 07:53:00;;;;;;;2.10;1.40;;;20.40;99.90;;;;;;5011283;28;20060;-76
2022/08/11 07:55:29;;;;;;;2.33;1.50;;;20.50;99.90;;;;;;5011275;28;20132;-76
2022/08/11 08:17:58;;;;;;;5.40;1.55;;;21.00;99.90;;;;;;5014717;28;20084;-76
2022/08/11 08:20:48;;;;;;;5.18;1.90;;;21.10;99.90;;;;;;5014335;28;20056;-76
2022/08/11 08:23:17;;;;;;;3.20;1.35;;;21.20;99.90;;;;;;5015001;28;20050;-76
2022/08/11 08:25:45;;;;;;;5.53;1.80;;;21.20;99.90;;;;;;5015234;28;20046;-76
2022/08/11 08:28:16;;;;;;;5.57;2.10;;;21.30;99.90;;;;;;5012808;28;20700;-76
2022/08/11 08:30:46;;;;;;;9.88;2.17;;;21.30;99.90;;;;;;5013173;28;20467;-76
2022/08/11 08:33:20;;;;;;;3.97;1.67;;;21.40;99.90;;;;;;5013491;28;20085;-76
2022/08/11 08:35:50;;;;;;;5.25;1.65;;;21.40;99.90;;;;;;5013246;28;20134;-76
2022/08/11 08:38:22;;;;;;;2.83;2.22;;;21.40;99.90;;;;;;5013385;28;20137;-76
2022/08/11 08:40:52;;;;;;;3.75;1.95;;;21.50;99.90;;;;;;5014607;28;20494;-76
2022/08/11 08:43:22;;;;;;;4.20;2.10;;;21.50;99.90;;;;;;5013685;28;20046;-76
2022/08/11 08:45:54;;;;;;;6.68;2.85;;;21.60;99.90;;;;;;5012828;28;20056;-76
2022/08/11 08:48:23;;;;;;;8.35;2.88;;;21.70;99.90;;;;;;5013144;28;20096;-77
2022/08/11 08:53:50;;;;;;;5.78;2.10;;;21.80;99.90;;;;;;5014238;28;20045;-75
2022/08/11 08:56:26;;;;;;;6.75;2.65;;;21.80;99.90;;;;;;5012179;28;20069;-76
2022/08/11 08:58:57;;;;;;;7.53;2.13;;;21.80;99.90;;;;;;5012942;28;20380;-76
2022/08/11 09:01:27;;;;;;;4.68;2.10;;;21.90;99.90;;;;;;5012289;28;20073;-75
2022/08/11 09:03:54;;;;;;;4.63;2.72;;;21.90;99.90;;;;;;5012710;28;20116;-76
2022/08/11 09:06:38;;;;;;;6.40;1.92;;;22.00;99.90;;;;;;5013672;28;20405;-76
2022/08/11 09:09:10;;;;;;;6.45;2.08;;;22.10;99.90;;;;;;5014054;28;20054;-75
2022/08/11 09:11:54;;;;;;;6.13;2.10;;;22.10;99.90;;;;;;5014190;28;20057;-76
2022/08/11 09:17:21;;;;;;;4.15;1.52;;;22.30;99.90;;;;;;5013848;28;20065;-75
2022/08/11 09:19:50;;;;;;;5.22;1.80;;;22.40;99.90;;;;;;5013555;28;20129;-76
2022/08/11 09:27:58;;;;;;;3.92;1.20;;;22.70;99.90;;;;;;5013148;28;20082;-75
2022/08/11 09:30:26;;;;;;;8.68;2.03;;;22.70;99.90;;;;;;5013537;28;20145;-75
2022/08/11 09:32:56;;;;;;;7.05;1.48;;;22.70;99.90;;;;;;5013735;28;20148;-75
2022/08/11 09:35:28;;;;;;;3.80;1.40;;;22.70;99.90;;;;;;5013738;28;20046;-76
2022/08/11 09:40:51;;;;;;;3.90;1.52;;;22.90;99.90;;;;;;5013463;28;20045;-75
2022/08/11 09:46:10;;;;;;;3.28;1.33;;;23.00;99.90;;;;;;5010569;28;20089;-75
2022/08/11 09:48:43;;;;;;;5.00;1.38;;;23.00;99.90;;;;;;5013085;28;20088;-76
2022/08/11 09:51:10;;;;;;;3.63;1.48;;;23.00;99.90;;;;;;5012922;28;20488;-76
2022/08/11 09:53:42;;;;;;;6.32;1.63;;;23.10;99.90;;;;;;5013385;28;20479;-76
2022/08/11 09:59:21;;;;;;;4.95;1.67;;;23.10;99.90;;;;;;5012807;28;20100;-76
2022/08/11 10:01:58;;;;;;;4.65;1.50;;;23.20;99.90;;;;;;5013422;28;20088;-76
2022/08/11 10:04:37;;;;;;;2.30;1.45;;;23.20;99.90;;;;;;5013017;28;20069;-76
2022/08/11 10:07:05;;;;;;;3.83;1.33;;;23.30;99.90;;;;;;5012976;28;20558;-75
2022/08/11 10:09:49;;;;;;;4.47;1.63;;;23.50;99.90;;;;;;5012666;28;20061;-76
2022/08/11 10:12:23;;;;;;;2.80;1.30;;;23.60;99.90;;;;;;5012952;28;20100;-76
2022/08/11 10:20:35;;;;;;;2.47;1.40;;;23.80;99.90;;;;;;5012608;28;20088;-75
2022/08/11 10:28:35;;;;;;;8.77;1.85;;;24.10;99.90;;;;;;5012125;28;20050;-76
2022/08/11 10:34:30;;;;;;;5.03;1.73;;;24.20;99.90;;;;;;5009596;28;20049;-76
2022/08/11 10:37:01;;;;;;;4.20;1.77;;;24.20;99.90;;;;;;5011858;28;20085;-76
2022/08/11 10:39:28;;;;;;;5.20;1.50;;;24.30;99.90;;;;;;5012247;28;20138;-76
2022/08/11 10:47:33;;;;;;;3.55;1.58;;;24.30;99.90;;;;;;5011128;28;20081;-76
2022/08/11 10:47:54;;;;;;;2.63;1.55;;;24.50;99.90;;;;;;5012305;28;20046;-76
2022/08/11 10:58:48;;;;;;;3.85;1.77;;;24.90;99.90;;;;;;5011943;28;20073;-76
2022/08/11 11:01:32;;;;;;;3.47;1.33;;;24.90;99.90;;;;;;5011974;28;20085;-76
2022/08/11 11:04:16;;;;;;;4.72;1.92;;;24.90;99.90;;;;;;5009602;28;20149;-76
2022/08/11 11:06:54;;;;;;;3.67;2.00;;;25.00;99.90;;;;;;5009058;28;20148;-76
2022/08/11 11:09:31;;;;;;;3.88;1.50;;;25.00;99.90;;;;;;5011923;28;20460;-76
2022/08/11 11:18:11;;;;;;;3.80;1.60;;;25.10;99.90;;;;;;5011556;28;20089;-76
2022/08/11 11:20:39;;;;;;;4.15;1.80;;;25.20;99.90;;;;;;5011793;28;20137;-76
2022/08/11 11:23:35;;;;;;;3.78;2.03;;;25.30;99.90;;;;;;5009168;28;20459;-76
2022/08/11 11:26:22;;;;;;;6.40;1.70;;;25.30;99.90;;;;;;5011981;28;20160;-75
2022/08/11 11:29:38;;;;;;;3.45;1.50;;;25.30;99.90;;;;;;5011584;28;20348;-75
2022/08/11 11:32:20;;;;;;;2.80;1.60;;;25.40;99.90;;;;;;5011489;28;20491;-75
2022/08/11 11:34:57;;;;;;;3.22;1.33;;;25.50;99.90;;;;;;5010512;28;20132;-75
2022/08/11 11:37:24;;;;;;;2.58;1.50;;;25.70;99.90;;;;;;5009293;28;20080;-75
2022/08/11 11:39:53;;;;;;;2.75;1.60;;;26.00;99.90;;;;;;5011544;28;20470;-76
2022/08/11 11:42:21;;;;;;;4.57;2.20;;;26.10;99.90;;;;;;5011245;28;20458;-75
2022/08/11 11:44:49;;;;;;;2.17;1.60;;;26.00;99.90;;;;;;5011514;28;20140;-76
2022/08/11 11:47:21;;;;;;;3.03;1.67;;;26.00;99.90;;;;;;5010943;28;20446;-75
2022/08/11 11:49:49;;;;;;;2.05;1.63;;;26.00;99.90;;;;;;5011448;28;20085;-75
2022/08/11 11:52:18;;;;;;;2.20;1.20;;;26.00;99.90;;;;;;5010786;28;20057;-75
2022/08/11 11:54:49;;;;;;;3.53;1.70;;;26.00;99.90;;;;;;5011318;28;20129;-75
2022/08/11 12:03:04;;;;;;;2.70;1.40;;;26.00;99.90;;;;;;5011129;28;20524;-75
2022/08/11 12:05:34;;;;;;;4.55;1.60;;;26.40;99.90;;;;;;5011386;28;20427;-75
2022/08/11 12:08:14;;;;;;;3.08;1.27;;;26.50;99.90;;;;;;5011426;28;20050;-77
2022/08/11 12:13:44;;;;;;;2.72;1.60;;;26.50;99.90;;;;;;5010787;28;20053;-77
2022/08/11 12:16:14;;;;;;;4.57;1.60;;;26.40;99.80;;;;;;5010569;28;20128;-76
2022/08/11 12:19:06;;;;;;;4.50;1.88;;;26.50;99.90;;;;;;5010897;28;20054;-76
2022/08/11 12:21:35;;;;;;;3.75;1.50;;;26.70;99.20;;;;;;5011226;28;20049;-75
2022/08/11 12:29:55;;;;;;;6.13;1.73;;;26.80;99.00;;;;;;5010726;28;20068;-75
2022/08/11 12:32:42;;;;;;;3.13;1.35;;;26.90;98.70;;;;;;5009629;28;20100;-77
2022/08/11 12:35:10;;;;;;;4.68;1.42;;;26.90;98.60;;;;;;5011334;28;20092;-77
2022/08/11 12:37:43;;;;;;;5.10;1.63;;;26.90;98.50;;;;;;5009363;28;20053;-75
2022/08/11 12:46:27;;;;;;;2.72;1.20;;;26.80;98.20;;;;;;5009884;28;20124;-76
2022/08/11 12:52:00;;;;;;;4.18;1.25;;;26.80;98.00;;;;;;5010132;28;20085;-75
2022/08/11 12:54:48;;;;;;;4.53;1.48;;;27.10;97.60;;;;;;5010027;28;20427;-76
2022/08/11 13:05:42;;;;;;;3.42;1.50;;;27.30;97.00;;;;;;5013494;28;20136;-75
2022/08/11 13:08:12;;;;;;;;;;;27.30;97.50;;;;;;5014760;28;20050;-76
2022/08/11 13:13:25;;;;;;;3.58;1.38;;;27.30;96.80;;;;;;5014042;28;20046;-76
2022/08/11 13:16:13;;;;;;;2.15;1.38;;;27.20;96.60;;;;;;5013013;28;20061;-76
2022/08/11 13:18:41;;;;;;;2.05;1.30;;;27.30;97.20;;;;;;5013700;28;20053;-76
2022/08/11 13:21:12;;;;;;;6.03;1.60;;;27.30;96.50;;;;;;5014141;28;20046;-75
2022/08/11 13:23:52;;;;;;;3.65;1.50;;;27.30;97.00;;;;;;5013774;28;20065;-76
2022/08/11 13:26:30;;;;;;;3.30;1.60;;;27.30;96.40;;;;;;5013487;28;20137;-75
2022/08/11 13:29:18;;;;;;;2.42;1.50;;;27.30;96.00;;;;;;5013477;28;20128;-76
2022/08/11 13:31:46;;;;;;;3.55;1.40;;;27.30;96.30;;;;;;5013742;28;20538;-75
2022/08/11 13:34:15;;;;;;;4.78;1.52;;;27.40;96.10;;;;;;5013705;28;20092;-75
2022/08/11 13:36:42;;;;;;;4.50;1.98;;;27.50;95.50;;;;;;5013848;28;20128;-75
2022/08/11 13:39:09;;;;;;;1.52;1.38;;;27.60;95.40;;;;;;5013690;28;20172;-76
2022/08/11 13:41:39;;;;;;;6.55;1.40;;;27.60;95.10;;;;;;5013517;28;20081;-76
2022/08/11 13:44:08;;;;;;;;;;;27.60;95.50;;;;;;5014059;28;20500;-75
2022/08/11 13:46:36;;;;;;;2.75;1.60;;;27.60;95.60;;;;;;5013207;28;19922;-75
2022/08/11 13:49:03;;;;;;;5.53;1.55;;;28.00;94.90;;;;;;5013111;28;20089;-76
2022/08/11 13:51:34;;;;;;;3.75;1.23;;;27.90;95.10;;;;;;5013297;28;20081;-76
2022/08/11 13:54:04;;;;;;;2.35;1.40;;;28.10;94.90;;;;;;5011053;28;20096;-75
2022/08/11 13:56:31;;;;;;;;;;;28.00;94.60;;;;;;5013896;28;20471;-75
2022/08/11 13:59:01;;;;;;;6.80;1.40;;;28.00;95.20;;;;;;5013324;28;19965;-75
2022/08/11 14:01:32;;;;;;;1.77;1.20;;;27.90;94.80;;;;;;5013180;28;20049;-75
2022/08/11 14:04:33;;;;;;;2.95;1.70;;;27.90;94.80;;;;;;5012495;28;20050;-75
2022/08/11 14:07:05;;;;;;;2.92;1.40;;;28.00;95.20;;;;;;5012102;28;20731;-76
2022/08/11 14:09:36;;;;;;;2.55;1.45;;;28.20;93.90;;;;;;5009882;28;20088;-75
2022/08/11 14:15:33;;;;;;;3.17;1.25;;;28.10;94.30;;;;;;5007326;28;20494;-76
2022/08/11 14:18:04;;;;;;;2.95;1.30;;;28.10;94.20;;;;;;5013038;28;20248;-76
2022/08/11 14:23:38;;;;;;;3.40;1.40;;;28.20;94.00;;;;;;5013016;28;20124;-76
2022/08/11 14:26:22;;;;;;;3.00;1.38;;;28.40;93.40;;;;;;5012825;28;20081;-76
2022/08/11 14:28:55;;;;;;;2.05;1.45;;;28.40;93.50;;;;;;5012469;28;20046;-75
2022/08/11 14:31:24;;;;;;;3.00;1.30;;;28.50;93.80;;;;;;5012827;28;20050;-76
2022/08/11 14:33:54;;;;;;;3.55;1.60;;;28.40;94.30;;;;;;5012922;28;20083;-76
2022/08/11 14:36:34;;;;;;;3.72;1.30;;;28.40;93.60;;;;;;5012398;28;20050;-75
2022/08/11 14:39:15;;;;;;;4.57;1.25;;;28.40;93.40;;;;;;5012635;28;20064;-76
2022/08/11 14:47:34;;;;;;;5.97;1.50;;;28.60;93.00;;;;;;5012613;28;20140;-75
2022/08/11 14:50:02;;;;;;;3.40;1.52;;;28.70;93.20;;;;;;5012506;28;20050;-75
2022/08/11 14:52:47;;;;;;;2.92;1.75;;;28.60;92.60;;;;;;5009664;28;20149;-76
2022/08/11 14:58:01;;;;;;;2.50;1.50;;;28.60;93.20;;;;;;5008682;28;20137;-76
2022/08/11 15:00:29;;;;;;;4.20;1.50;;;28.80;92.90;;;;;;5012159;28;20125;-75
2022/08/11 15:03:10;;;;;;;5.32;1.67;;;28.90;92.40;;;;;;5011929;28;20770;-75
2022/08/11 15:05:44;;;;;;;4.60;1.30;;;28.90;93.20;;;;;;5012351;28;20125;-75
2022/08/11 15:14:02;;;;;;;2.10;1.42;;;29.30;91.60;;;;;;5011206;28;20085;-76
2022/08/11 15:19:18;;;;;;;6.28;1.63;;;29.20;91.90;;;;;;5011987;28;20494;-76
2022/08/11 15:24:33;;;;;;;4.40;1.40;;;29.10;91.50;;;;;;5011647;28;19991;-76
2022/08/11 15:38:30;;;;;;;5.47;1.40;;;29.10;91.30;;;;;;5011443;28;20046;-75
2022/08/11 15:46:48;;;;;;;4.93;1.35;;;29.10;91.00;;;;;;5011917;28;20049;-77
2022/08/11 15:49:30;;;;;;;4.90;1.40;;;29.00;91.00;;;;;;5011319;28;20664;-77
2022/08/11 15:52:21;;;;;;;3.33;1.30;;;28.90;90.70;;;;;;5011545;28;20050;-77
2022/08/11 15:54:50;;;;;;;5.40;1.20;;;29.20;90.60;;;;;;5011622;28;20125;-77
2022/08/11 16:05:25;;;;;;;5.65;1.30;;;29.40;90.40;;;;;;5009118;28;20124;-77
2022/08/11 16:08:14;;;;;;;1.93;1.17;;;29.20;90.50;;;;;;5011330;28;20061;-77
2022/08/11 16:10:41;;;;;;;2.15;1.25;;;29.30;90.20;;;;;;5010158;28;20316;-77
2022/08/11 16:18:40;;;;;;;2.63;1.27;;;29.30;89.90;;;;;;5011023;28;20050;-77
2022/08/11 16:21:14;;;;;;;5.30;1.30;;;29.40;89.80;;;;;;5010919;28;20069;-77
2022/08/11 16:24:04;;;;;;;4.03;1.17;;;29.40;90.00;;;;;;5010412;28;20153;-77
2022/08/11 16:26:33;;;;;;;4.07;0.90;;;29.50;89.10;;;;;;5011236;28;20128;-77
2022/08/11 16:29:22;;;;;;;3.55;1.10;;;29.40;90.00;;;;;;5010884;28;20050;-77
2022/08/11 16:40:11;;;;;;;4.38;1.13;;;29.20;88.90;;;;;;5012667;28;20042;-77
2022/08/11 16:48:29;;;;;;;5.00;1.20;;;29.30;87.60;;;;;;5012515;28;20077;-77
2022/08/11 16:51:09;;;;;;;3.30;1.10;;;29.40;87.00;;;;;;5013600;28;20050;-77
2022/08/11 16:53:38;;;;;;;6.05;1.63;;;29.50;87.40;;;;;;5014990;28;20058;-77
2022/08/11 16:56:31;;;;;;;2.20;1.00;;;29.50;88.00;;;;;;5014582;28;20064;-76
2022/08/11 16:59:15;;;;;;;3.03;0.88;;;29.50;88.70;;;;;;5013047;28;20480;-77
2022/08/11 17:01:51;;;;;;;5.55;1.20;;;29.40;89.10;;;;;;5012971;28;20412;-77
2022/08/11 17:13:27;;;;;;;2.33;0.93;;;29.10;89.40;;;;;;5012576;28;20049;-77
2022/08/11 17:16:11;;;;;;;5.57;1.33;;;29.10;88.70;;;;;;5012408;28;20053;-77
2022/08/11 17:18:55;;;;;;;4.30;1.35;;;29.00;89.10;;;;;;5012302;28;20484;-76
2022/08/11 17:24:26;;;;;;;1.38;1.10;;;28.90;90.00;;;;;;5012411;28;20042;-77
2022/08/11 17:26:58;;;;;;;3.03;1.40;;;28.80;89.70;;;;;;5012934;28;20057;-77
2022/08/11 17:29:35;;;;;;;2.58;1.27;;;28.80;90.10;;;;;;5012199;28;20125;-77
2022/08/11 17:35:29;;;;;;;2.85;1.20;;;28.70;90.10;;;;;;5012433;28;20104;-76
2022/08/11 17:38:02;;;;;;;2.42;1.30;;;28.70;90.40;;;;;;5012877;28;20771;-76
2022/08/11 17:40:32;;;;;;;3.05;1.15;;;28.60;90.50;;;;;;5012882;28;20092;-76
2022/08/11 17:48:40;;;;;;;4.72;1.40;;;28.40;90.50;;;;;;5010274;28;20125;-77
2022/08/11 17:59:50;;;;;;;;;;;28.30;90.90;;;;;;5013299;28;20119;-76
2022/08/11 17:59:52;;;;;;;3.80;1.27;;;28.10;91.20;;;;;;5013194;28;20049;-76
2022/08/11 18:05:11;;;;;;;2.97;1.27;;;28.00;91.20;;;;;;5013059;28;20096;-76
